createdAt,value
2023-01-02T00:01:14.576Z,12.03
2023-01-02T00:03:42.824Z,10.43
2023-01-02T00:06:10.982Z,11.73
2023-01-02T00:08:39.047Z,7.50
2023-01-02T00:11:07.239Z,6.07
2023-01-02T00:13:35.296Z,9.57
2023-01-02T00:16:03.487Z,6.97
2023-01-02T00:18:32.970Z,9.80
2023-01-02T00:21:04.186Z,9.03
2023-01-02T00:23:34.468Z,10.27
2023-01-02T00:26:02.905Z,8.33
2023-01-02T00:28:31.937Z,8.67
2023-01-02T00:31:06.479Z,8.37
2023-01-02T00:33:36.396Z,5.83
2023-01-02T00:36:06.642Z,9.07
2023-01-02T00:38:38.022Z,8.53
2023-01-02T00:41:07.381Z,10.67
2023-01-02T00:43:35.559Z,7.77
2023-01-02T00:46:07.796Z,10.37
2023-01-02T00:48:40.936Z,6.20
2023-01-02T00:51:09.680Z,9.37
2023-01-02T00:53:37.884Z,7.80
2023-01-02T00:56:06.683Z,6.97
2023-01-02T00:58:34.766Z,9.23
2023-01-02T01:01:03.039Z,8.33
2023-01-02T01:03:31.735Z,9.80
2023-01-02T01:06:06.445Z,7.63
2023-01-02T01:08:35.814Z,11.67
2023-01-02T01:11:07.299Z,8.17
2023-01-02T01:13:35.719Z,7.80
2023-01-02T01:16:08.232Z,6.40
2023-01-02T01:18:37.485Z,7.33
2023-01-02T01:21:10.957Z,7.77
2023-01-02T01:23:39.326Z,10.50
2023-01-02T01:26:08.874Z,9.90
2023-01-02T01:28:37.187Z,6.13
2023-01-02T01:31:06.454Z,9.70
2023-01-02T01:33:35.378Z,8.10
2023-01-02T01:36:04.020Z,8.27
2023-01-02T01:38:33.807Z,8.60
2023-01-02T01:41:02.860Z,7.90
2023-01-02T01:43:43.148Z,8.40
2023-01-02T01:46:20.956Z,5.30
2023-01-02T01:48:52.775Z,5.63
2023-01-02T01:51:21.855Z,5.83
2023-01-02T01:53:57.217Z,5.73
2023-01-02T01:56:25.329Z,6.37
2023-01-02T01:58:53.494Z,8.90
2023-01-02T02:01:21.690Z,6.00
2023-01-02T02:03:50.986Z,6.00
2023-01-02T02:06:20.365Z,6.33
2023-01-02T02:08:58.959Z,9.13
2023-01-02T02:11:27.785Z,9.17
2023-01-02T02:13:59.941Z,8.40
2023-01-02T02:16:40.586Z,12.27
2023-01-02T02:19:49.434Z,8.73
2023-01-02T02:22:42.593Z,9.63
2023-01-02T02:25:45.283Z,7.73
2023-01-02T02:28:41.326Z,9.13
2023-01-02T02:31:15.834Z,8.33
2023-01-02T02:33:50.397Z,11.77
2023-01-02T02:36:22.921Z,7.43
2023-01-02T02:39:00.398Z,9.77
2023-01-02T02:41:35.621Z,11.37
2023-01-02T02:44:14.699Z,11.77
2023-01-02T02:46:52.461Z,9.70
2023-01-02T02:49:36.225Z,8.83
2023-01-02T02:52:09.399Z,10.17
2023-01-02T02:54:43.880Z,12.07
2023-01-02T02:57:13.947Z,6.00
2023-01-02T02:59:43.321Z,8.77
2023-01-02T03:07:50.698Z,5.60
2023-01-02T03:10:24.559Z,7.67
2023-01-02T03:13:05.769Z,6.70
2023-01-02T03:15:36.720Z,10.60
2023-01-02T03:18:13.187Z,8.77
2023-01-02T03:20:46.051Z,11.67
2023-01-02T03:23:21.903Z,13.17
2023-01-02T03:25:52.154Z,6.87
2023-01-02T03:28:24.138Z,8.53
2023-01-02T03:30:57.427Z,6.17
2023-01-02T03:33:28.710Z,8.43
2023-01-02T03:36:00.786Z,8.10
2023-01-02T03:38:35.382Z,8.67
2023-01-02T03:41:09.169Z,8.10
2023-01-02T03:43:39.677Z,6.97
2023-01-02T03:46:13.745Z,7.73
2023-01-02T03:48:46.078Z,4.70
2023-01-02T03:51:14.251Z,7.73
2023-01-02T03:53:44.143Z,7.00
2023-01-02T03:56:23.598Z,6.20
2023-01-02T03:58:58.145Z,7.87
2023-01-02T04:01:33.872Z,6.93
2023-01-02T04:04:08.232Z,8.83
2023-01-02T04:06:40.351Z,9.10
2023-01-02T04:09:13.148Z,7.07
2023-01-02T04:11:44.295Z,10.23
2023-01-02T04:14:18.552Z,6.90
2023-01-02T04:16:50.089Z,8.20
2023-01-02T04:19:24.424Z,7.13
2023-01-02T04:21:56.918Z,9.87
2023-01-02T04:24:32.418Z,8.13
2023-01-02T04:27:05.008Z,8.77
2023-01-02T04:29:33.284Z,6.70
2023-01-02T04:32:05.327Z,4.53
2023-01-02T04:34:36.465Z,7.47
2023-01-02T04:37:04.693Z,5.10
2023-01-02T04:39:35.552Z,11.47
2023-01-02T04:42:03.717Z,9.60
2023-01-02T04:44:31.800Z,5.27
2023-01-02T04:46:59.841Z,9.47
2023-01-02T04:49:27.911Z,9.57
2023-01-02T04:51:55.992Z,8.50
2023-01-02T04:54:24.037Z,5.17
2023-01-02T04:56:53.540Z,6.73
2023-01-02T04:59:21.656Z,9.70
2023-01-02T05:01:49.756Z,8.73
2023-01-02T05:04:17.884Z,7.73
2023-01-02T05:06:46.020Z,6.47
2023-01-02T05:09:16.105Z,7.80
2023-01-02T05:11:44.163Z,7.03
2023-01-02T05:14:13.615Z,8.23
2023-01-02T05:16:41.688Z,7.43
2023-01-02T05:19:09.866Z,6.83
2023-01-02T05:21:55.161Z,9.67
2023-01-02T05:24:23.381Z,6.10
2023-01-02T05:26:51.403Z,8.53
2023-01-02T05:29:21.060Z,8.07
2023-01-02T05:31:49.110Z,8.53
2023-01-02T05:34:17.835Z,11.27
2023-01-02T05:36:45.894Z,6.17
2023-01-02T05:39:15.160Z,6.30
2023-01-02T05:41:43.583Z,7.47
2023-01-02T05:44:12.198Z,7.60
2023-01-02T05:46:41.763Z,7.90
2023-01-02T05:49:11.316Z,7.20
2023-01-02T05:51:39.650Z,6.57
2023-01-02T05:54:08.313Z,6.17
2023-01-02T05:56:36.458Z,9.60
2023-01-02T05:59:08.932Z,5.03
2023-01-02T06:01:37.541Z,6.23
2023-01-02T06:04:07.123Z,14.10
2023-01-02T06:06:37.524Z,7.90
2023-01-02T06:09:06.705Z,6.07
2023-01-02T06:11:35.650Z,4.83
2023-01-02T06:14:03.730Z,3.93
2023-01-02T06:16:31.957Z,5.67
2023-01-02T06:19:00.122Z,7.33
2023-01-02T06:21:29.571Z,6.47
2023-01-02T06:23:58.993Z,6.37
2023-01-02T06:26:34.204Z,3.67
2023-01-02T06:29:05.269Z,5.70
2023-01-02T06:31:33.871Z,6.60
2023-01-02T06:34:03.600Z,5.77
2023-01-02T06:36:34.829Z,3.50
2023-01-02T06:39:03.735Z,4.63
2023-01-02T06:41:32.043Z,5.57
2023-01-02T06:44:00.158Z,6.80
2023-01-02T06:46:28.278Z,6.93
2023-01-02T06:48:56.715Z,6.30
2023-01-02T06:51:25.136Z,4.80
2023-01-02T06:53:55.541Z,1.43
2023-01-02T06:56:24.039Z,1.67
2023-01-02T06:58:52.102Z,0.50
2023-01-02T07:01:21.710Z,0.50
2023-01-02T07:03:50.414Z,0.40
2023-01-02T07:06:20.461Z,1.13
2023-01-02T07:08:49.020Z,0.80
2023-01-02T07:11:20.066Z,1.27
2023-01-02T07:13:49.424Z,0.47
2023-01-02T07:16:19.553Z,0.57
2023-01-02T07:18:47.930Z,0.73
2023-01-02T07:21:18.075Z,0.60
2023-01-02T07:23:46.341Z,0.63
2023-01-02T07:26:14.955Z,1.20
2023-01-02T07:28:44.617Z,2.80
2023-01-02T07:31:15.679Z,2.47
2023-01-02T07:33:43.932Z,2.40
2023-01-02T07:36:14.168Z,1.90
2023-01-02T07:38:42.273Z,1.50
2023-01-02T07:41:15.663Z,1.10
2023-01-02T07:43:46.474Z,1.17
2023-01-02T07:46:15.379Z,1.90
2023-01-02T07:48:43.659Z,3.30
2023-01-02T07:51:12.565Z,4.03
2023-01-02T07:53:41.761Z,4.13
2023-01-02T07:56:10.168Z,4.97
2023-01-02T07:58:38.888Z,5.57
2023-01-02T08:01:10.582Z,6.50
2023-01-02T08:03:39.349Z,7.70
2023-01-02T08:06:09.085Z,8.47
2023-01-02T08:08:37.636Z,6.37
2023-01-02T08:11:07.316Z,5.90
2023-01-02T08:13:35.605Z,5.87
2023-01-02T08:16:10.647Z,6.93
2023-01-02T08:18:38.826Z,5.97
2023-01-02T08:21:07.611Z,4.10
2023-01-02T08:23:36.214Z,5.17
2023-01-02T08:26:06.442Z,5.70
2023-01-02T08:28:35.995Z,4.43
2023-01-02T08:31:11.603Z,5.47
2023-01-02T08:33:39.862Z,6.63
2023-01-02T08:36:08.723Z,7.33
2023-01-02T08:38:36.926Z,4.60
2023-01-02T08:41:06.398Z,3.80
2023-01-02T08:43:36.348Z,4.40
2023-01-02T08:46:05.757Z,3.37
2023-01-02T08:48:35.315Z,4.93
2023-01-02T08:51:04.132Z,4.87
2023-01-02T08:53:32.359Z,4.60
2023-01-02T08:56:21.804Z,5.53
2023-01-02T08:58:54.403Z,5.50
2023-01-02T09:01:23.709Z,5.37
2023-01-02T09:03:53.543Z,4.10
2023-01-02T09:06:22.970Z,4.87
2023-01-02T09:08:52.448Z,4.77
2023-01-02T09:11:23.033Z,4.97
2023-01-02T09:13:51.203Z,4.93
2023-01-02T09:16:19.386Z,4.40
2023-01-02T09:18:47.580Z,4.23
2023-01-02T09:21:17.379Z,4.80
2023-01-02T09:23:45.580Z,4.17
2023-01-02T09:26:15.146Z,5.70
2023-01-02T09:28:43.226Z,3.83
2023-01-02T09:31:14.509Z,4.80
2023-01-02T09:33:43.729Z,3.63
2023-01-02T09:36:14.387Z,4.63
2023-01-02T09:38:43.960Z,4.50
2023-01-02T09:41:28.046Z,3.73
2023-01-02T09:44:01.114Z,5.07
2023-01-02T09:46:36.418Z,4.37
2023-01-02T09:49:05.331Z,5.47
2023-01-02T09:51:35.588Z,5.30
2023-01-02T09:54:08.102Z,3.70
2023-01-02T09:56:41.612Z,3.70
2023-01-02T09:59:15.857Z,6.63
2023-01-02T10:01:56.960Z,4.23
2023-01-02T10:04:41.256Z,3.87
2023-01-02T10:07:13.381Z,4.37
2023-01-02T10:09:53.994Z,4.83
2023-01-02T10:12:27.237Z,5.03
2023-01-02T10:14:59.290Z,5.57
2023-01-02T10:17:30.635Z,4.27
2023-01-02T10:20:02.828Z,6.67
2023-01-02T10:22:37.920Z,6.07
2023-01-02T10:25:15.787Z,4.73
2023-01-02T10:27:50.190Z,4.30
2023-01-02T10:30:21.184Z,4.50
2023-01-02T10:32:56.953Z,6.60
2023-01-02T10:35:35.113Z,6.80
2023-01-02T10:38:04.066Z,5.17
2023-01-02T10:40:35.055Z,3.90
2023-01-02T10:43:03.315Z,4.47
2023-01-02T10:45:31.668Z,4.40
2023-01-02T10:47:59.874Z,4.00
2023-01-02T10:50:33.016Z,3.50
2023-01-02T10:53:23.641Z,3.90
2023-01-02T10:55:53.130Z,4.37
2023-01-02T10:58:23.626Z,6.17
2023-01-02T11:00:52.943Z,5.93
2023-01-02T11:03:25.216Z,5.27
2023-01-02T11:05:55.018Z,4.00
2023-01-02T11:08:24.801Z,5.03
2023-01-02T11:10:54.305Z,5.00
2023-01-02T11:13:23.489Z,4.60
2023-01-02T11:15:55.044Z,4.03
2023-01-02T11:18:26.382Z,6.57
2023-01-02T11:21:00.110Z,4.30
2023-01-02T11:23:28.285Z,6.83
2023-01-02T11:25:57.859Z,7.47
2023-01-02T11:28:28.775Z,4.40
2023-01-02T11:31:03.198Z,3.43
2023-01-02T11:33:34.358Z,3.40
2023-01-02T11:36:15.951Z,4.07
2023-01-02T11:38:45.879Z,4.13
2023-01-02T11:41:48.151Z,3.20
2023-01-02T11:44:21.259Z,3.97
2023-01-02T11:46:50.524Z,5.30
2023-01-02T11:49:21.958Z,2.50
2023-01-02T11:51:54.969Z,5.00
2023-01-02T11:54:26.032Z,3.37
2023-01-02T11:56:55.533Z,2.73
2023-01-02T11:59:28.320Z,6.43
2023-01-02T12:02:01.863Z,4.57
2023-01-02T12:04:31.269Z,4.57
2023-01-02T12:07:29.044Z,2.57
2023-01-02T12:10:06.193Z,6.70
2023-01-02T12:12:51.107Z,3.03
2023-01-02T12:15:57.777Z,3.87
2023-01-02T12:18:39.803Z,5.27
2023-01-02T12:21:17.321Z,5.03
2023-01-02T12:24:10.977Z,5.87
2023-01-02T12:26:49.823Z,3.77
2023-01-02T12:29:57.881Z,7.40
2023-01-02T12:33:16.605Z,3.93
2023-01-02T12:36:05.385Z,3.73
2023-01-02T12:38:49.565Z,3.70
2023-01-02T12:41:26.886Z,4.37
2023-01-02T12:44:08.494Z,4.10
2023-01-02T12:47:07.897Z,6.20
2023-01-02T12:49:53.943Z,5.40
2023-01-02T12:52:39.623Z,8.53
2023-01-02T12:55:21.495Z,5.93
2023-01-02T12:57:57.766Z,5.87
2023-01-02T13:00:59.429Z,6.10
2023-01-02T13:03:50.465Z,5.60
2023-01-02T13:06:43.472Z,7.97
2023-01-02T13:09:22.045Z,7.23
2023-01-02T13:11:59.905Z,5.87
2023-01-02T13:14:35.504Z,7.73
2023-01-02T13:17:16.710Z,6.43
2023-01-02T13:19:55.033Z,7.27
2023-01-02T13:22:34.045Z,9.67
2023-01-02T13:25:03.191Z,7.23
2023-01-02T13:27:31.584Z,7.50
2023-01-02T13:30:03.338Z,8.03
2023-01-02T13:32:33.031Z,9.33
2023-01-02T13:35:04.483Z,9.63
2023-01-02T13:37:32.672Z,7.10
2023-01-02T13:40:03.696Z,9.63
2023-01-02T13:42:52.634Z,7.40
2023-01-02T13:45:24.595Z,9.73
2023-01-02T13:47:56.072Z,8.80
2023-01-02T13:50:28.563Z,9.77
2023-01-02T13:53:26.310Z,11.23
2023-01-02T13:56:07.335Z,14.47
2023-01-02T13:58:58.922Z,10.67
2023-01-02T14:02:09.060Z,10.63
2023-01-02T14:04:41.836Z,15.07
2023-01-02T14:07:49.478Z,12.63
2023-01-02T14:10:39.604Z,12.40
2023-01-02T14:13:20.325Z,10.53
2023-01-02T14:16:20.176Z,9.43
2023-01-02T14:19:05.706Z,14.13
2023-01-02T14:21:36.497Z,11.17
2023-01-02T14:24:17.404Z,8.50
2023-01-02T14:26:53.628Z,8.77
2023-01-02T14:29:23.911Z,9.50
2023-01-02T14:32:05.140Z,10.40
2023-01-02T14:34:34.759Z,10.50
2023-01-02T14:37:03.888Z,13.30
2023-01-02T14:39:37.001Z,12.47
2023-01-02T14:42:42.391Z,12.57
2023-01-02T14:45:17.239Z,11.00
2023-01-02T14:47:50.494Z,10.43
2023-01-02T14:50:23.219Z,8.70
2023-01-02T14:52:58.186Z,14.07
2023-01-02T14:55:28.882Z,11.90
2023-01-02T14:58:00.655Z,13.23
2023-01-02T15:00:33.110Z,10.73
2023-01-02T15:03:13.670Z,12.77
2023-01-02T15:05:48.742Z,10.67
2023-01-02T15:08:20.040Z,12.20
2023-01-02T15:11:20.037Z,13.50
2023-01-02T15:14:04.368Z,13.13
2023-01-02T15:16:40.609Z,13.03
2023-01-02T15:19:17.812Z,12.97
2023-01-02T15:21:47.844Z,13.60
2023-01-02T15:24:24.861Z,15.43
2023-01-02T15:26:53.664Z,13.40
2023-01-02T15:29:25.683Z,15.13
2023-01-02T15:31:55.742Z,16.50
2023-01-02T15:34:28.898Z,17.23
2023-01-02T15:36:59.380Z,16.57
2023-01-02T15:39:34.028Z,17.67
2023-01-02T15:42:08.165Z,20.40
2023-01-02T15:44:59.271Z,15.20
2023-01-02T15:47:28.661Z,15.60
2023-01-02T15:49:58.656Z,15.10
2023-01-02T15:52:31.070Z,14.93
2023-01-02T15:54:59.717Z,12.87
2023-01-02T15:57:31.968Z,17.13
2023-01-02T16:00:02.021Z,15.53
2023-01-02T16:02:41.955Z,14.77
2023-01-02T16:05:13.147Z,15.37
2023-01-02T16:07:42.153Z,16.83
2023-01-02T16:10:19.114Z,12.67
2023-01-02T16:12:52.893Z,16.03
2023-01-02T16:15:25.134Z,15.47
2023-01-02T16:17:55.465Z,13.37
2023-01-02T16:20:24.913Z,14.20
2023-01-02T16:22:56.345Z,13.23
2023-01-02T16:25:27.416Z,15.20
2023-01-02T16:27:57.722Z,16.43
2023-01-02T16:30:37.376Z,15.33
2023-01-02T16:33:20.789Z,12.67
2023-01-02T16:35:59.957Z,11.77
2023-01-02T16:38:29.217Z,10.97
2023-01-02T16:41:04.693Z,14.90
2023-01-02T16:43:42.877Z,12.77
2023-01-02T16:46:16.026Z,13.27
2023-01-02T16:48:45.071Z,14.97
2023-01-02T16:51:16.072Z,12.10
2023-01-02T16:53:45.899Z,13.23
2023-01-02T16:56:15.473Z,12.37
2023-01-02T16:58:43.631Z,13.73
2023-01-02T17:01:14.622Z,13.40
2023-01-02T17:03:43.576Z,11.80
2023-01-02T17:06:14.767Z,13.40
2023-01-02T17:08:43.428Z,12.00
2023-01-02T17:11:16.081Z,14.60
2023-01-02T17:13:44.464Z,13.43
2023-01-02T17:16:14.184Z,7.80
2023-01-02T17:18:42.356Z,8.87
2023-01-02T17:21:11.270Z,7.57
2023-01-02T17:23:39.692Z,8.00
2023-01-02T17:26:07.826Z,6.73
2023-01-02T17:28:36.778Z,7.50
2023-01-02T17:31:05.218Z,5.70
2023-01-02T17:33:34.755Z,6.73
2023-01-02T17:36:02.797Z,6.43
2023-01-02T17:38:30.869Z,8.27
2023-01-02T17:40:59.504Z,10.30
2023-01-02T17:43:27.570Z,12.37
2023-01-02T17:45:55.723Z,10.47
2023-01-02T17:48:25.297Z,12.03
2023-01-02T17:50:55.290Z,13.20
2023-01-02T17:53:23.346Z,10.40
2023-01-02T17:56:21.049Z,9.83
2023-01-02T17:58:41.148Z,9.83
2023-01-02T18:01:13.833Z,9.57
2023-01-02T18:03:43.768Z,11.20
2023-01-02T18:06:13.299Z,10.70
2023-01-02T18:08:41.516Z,13.33
2023-01-02T18:11:11.976Z,11.67
2023-01-02T18:13:43.820Z,8.20
2023-01-02T18:16:16.475Z,8.50
2023-01-02T18:18:46.157Z,8.33
2023-01-02T18:21:19.249Z,7.83
2023-01-02T18:23:50.081Z,6.67
2023-01-02T18:26:19.883Z,8.57
2023-01-02T18:28:51.962Z,5.03
2023-01-02T18:31:22.427Z,7.20
2023-01-02T18:33:52.509Z,7.70
2023-01-02T18:36:26.370Z,8.37
2023-01-02T18:39:03.513Z,11.40
2023-01-02T18:41:33.902Z,6.80
2023-01-02T18:44:21.659Z,6.63
2023-01-02T18:47:03.094Z,5.13
2023-01-02T18:49:40.293Z,4.77
2023-01-02T18:52:25.141Z,7.03
2023-01-02T18:55:00.410Z,5.30
2023-01-02T18:57:33.093Z,12.00
2023-01-02T19:00:15.990Z,7.40
2023-01-02T19:02:54.627Z,4.60
2023-01-02T19:05:26.914Z,4.43
2023-01-02T19:08:03.361Z,7.83
2023-01-02T19:10:37.402Z,5.97
2023-01-02T19:13:08.058Z,5.37
2023-01-02T19:15:42.438Z,8.07
2023-01-02T19:18:37.341Z,10.20
2023-01-02T19:21:15.770Z,7.97
2023-01-02T19:23:52.631Z,8.20
2023-01-02T19:26:25.253Z,6.37
2023-01-02T19:29:01.805Z,12.30
2023-01-02T19:31:42.198Z,10.70
2023-01-02T19:34:30.516Z,9.03
2023-01-02T19:37:14.742Z,13.07
2023-01-02T19:39:49.373Z,12.00
2023-01-02T19:42:21.137Z,8.00
2023-01-02T19:44:50.695Z,10.13
2023-01-02T19:47:19.285Z,14.63
2023-01-02T19:49:47.360Z,9.40
2023-01-02T19:52:16.444Z,11.90
2023-01-02T19:54:46.633Z,11.00
2023-01-02T19:57:17.602Z,13.10
2023-01-02T19:59:46.731Z,9.87
2023-01-02T20:02:16.757Z,8.97
2023-01-02T20:04:45.391Z,12.73
2023-01-02T20:07:13.863Z,8.13
2023-01-02T20:09:41.983Z,10.73
2023-01-02T20:12:27.839Z,11.97
2023-01-02T20:14:55.897Z,10.83
2023-01-02T20:17:24.182Z,13.30
2023-01-02T20:19:52.381Z,13.73
2023-01-02T20:22:20.434Z,8.20
2023-01-02T20:24:48.523Z,9.80
2023-01-02T20:27:19.753Z,12.40
2023-01-02T20:29:48.117Z,6.73
2023-01-02T20:32:16.333Z,9.00
2023-01-02T20:34:44.926Z,9.43
2023-01-02T20:37:13.003Z,9.43
2023-01-02T20:39:41.151Z,9.30
2023-01-02T20:53:43.047Z,9.83
2023-01-02T20:56:11.270Z,10.87
2023-01-02T20:58:39.356Z,7.87
2023-01-02T21:01:07.800Z,11.67
2023-01-02T21:03:36.069Z,10.10
2023-01-02T21:06:04.197Z,9.23
2023-01-02T21:08:32.259Z,10.37
2023-01-02T21:26:25.875Z,11.77
2023-01-02T21:28:53.984Z,10.30
2023-01-02T21:31:22.602Z,13.43
2023-01-02T21:33:50.705Z,18.47
2023-01-02T21:36:18.764Z,17.80
2023-01-02T21:38:46.828Z,15.83
2023-01-02T21:41:32.076Z,14.37
2023-01-02T21:44:01.642Z,17.93
2023-01-02T21:46:29.792Z,21.63
2023-01-02T21:48:57.902Z,14.47
2023-01-02T21:51:32.252Z,20.17
2023-01-02T21:54:01.158Z,23.17
2023-01-02T21:56:29.266Z,20.33
2023-01-02T21:58:57.703Z,21.17
2023-01-02T22:01:27.362Z,20.63
2023-01-02T22:03:57.247Z,20.03
2023-01-02T22:06:25.833Z,29.93
2023-01-02T22:08:53.927Z,26.80
2023-01-02T22:11:35.883Z,21.73
2023-01-02T22:14:03.942Z,23.90
2023-01-02T22:16:33.443Z,26.10
2023-01-02T22:19:01.576Z,23.97
2023-01-02T22:21:31.334Z,27.00
2023-01-02T22:23:59.486Z,26.63
2023-01-02T22:26:28.505Z,25.20
2023-01-02T22:28:57.132Z,25.70
2023-01-02T22:31:25.986Z,24.10
2023-01-02T22:33:57.599Z,24.40
2023-01-02T22:36:26.685Z,21.83
2023-01-02T22:39:26.681Z,26.30
2023-01-02T22:41:44.587Z,24.80
2023-01-02T22:44:17.278Z,23.47
2023-01-02T22:46:49.240Z,25.13
2023-01-02T22:49:21.339Z,24.50
2023-01-02T22:52:06.736Z,24.60
2023-01-02T22:54:35.230Z,23.97
2023-01-02T22:57:03.306Z,22.40
2023-01-02T22:59:31.382Z,23.50
2023-01-02T23:01:59.558Z,24.70
2023-01-02T23:04:29.076Z,20.63
2023-01-02T23:09:45.187Z,25.93
2023-01-02T23:12:13.377Z,31.73
2023-01-02T23:14:41.558Z,26.50
2023-01-02T23:17:28.775Z,24.43
2023-01-02T23:19:58.586Z,26.50
2023-01-02T23:22:26.742Z,24.90
2023-01-02T23:24:54.826Z,27.70
2023-01-02T23:27:23.079Z,23.27
2023-01-02T23:29:51.151Z,22.83
2023-01-02T23:32:19.238Z,26.43
2023-01-02T23:34:47.318Z,22.27
2023-01-02T23:37:16.755Z,22.43
2023-01-02T23:39:44.795Z,21.83
2023-01-02T23:42:12.877Z,22.37
2023-01-02T23:44:41.639Z,19.93
2023-01-02T23:47:14.528Z,18.90
2023-01-02T23:49:45.298Z,23.20
2023-01-02T23:52:13.376Z,24.40
2023-01-02T23:54:42.891Z,22.33
2023-01-02T23:57:10.980Z,18.83
2023-01-02T23:59:39.062Z,22.67
